createdAt,value
2018-09-18T00:01:50.528Z,17.40
2018-09-18T00:04:18.447Z,24.53
2018-09-18T00:06:46.335Z,21.80
2018-09-18T00:09:14.245Z,18.70
2018-09-18T00:11:42.142Z,24.53
2018-09-18T00:14:10.060Z,21.60
2018-09-18T00:16:37.991Z,20.80
2018-09-18T00:19:05.880Z,21.67
2018-09-18T00:21:33.793Z,19.87
2018-09-18T00:24:02.622Z,17.23
2018-09-18T00:26:30.582Z,18.70
2018-09-18T00:28:58.480Z,16.90
2018-09-18T00:31:26.423Z,17.83
2018-09-18T00:33:54.394Z,18.30
2018-09-18T00:36:22.261Z,19.03
2018-09-18T00:38:50.153Z,20.10
2018-09-18T00:41:18.056Z,30.83
2018-09-18T00:43:45.947Z,20.17
2018-09-18T00:46:13.910Z,19.73
2018-09-18T00:55:46.824Z,16.73
2018-09-18T00:58:14.640Z,16.20
2018-09-18T01:00:42.636Z,17.47
2018-09-18T01:03:10.493Z,22.97
2018-09-18T01:05:38.434Z,20.80
2018-09-18T01:08:06.379Z,16.80
2018-09-18T01:10:34.252Z,17.43
2018-09-18T01:13:02.230Z,17.63
2018-09-18T01:15:30.197Z,21.60
2018-09-18T01:17:58.133Z,18.97
2018-09-18T01:20:26.119Z,15.80
2018-09-18T01:22:53.993Z,18.10
2018-09-18T01:25:21.932Z,16.03
2018-09-18T01:27:49.789Z,16.80
2018-09-18T01:30:17.649Z,21.43
2018-09-18T01:32:45.540Z,15.60
2018-09-18T01:35:13.398Z,15.30
2018-09-18T01:37:41.273Z,19.67
2018-09-18T01:40:09.125Z,16.17
2018-09-18T01:42:37.016Z,17.00
2018-09-18T01:45:05.189Z,17.57
2018-09-18T01:47:33.124Z,17.97
2018-09-18T01:50:01.051Z,17.70
2018-09-18T01:52:28.986Z,20.53
2018-09-18T01:54:56.942Z,14.90
2018-09-18T01:57:24.768Z,16.20
2018-09-18T01:59:52.697Z,16.60
2018-09-18T02:02:20.656Z,21.90
2018-09-18T02:04:48.596Z,16.27
2018-09-18T02:07:16.464Z,15.50
2018-09-18T02:09:44.333Z,17.70
2018-09-18T02:12:12.204Z,16.27
2018-09-18T02:14:40.086Z,19.77
2018-09-18T02:17:07.932Z,15.87
2018-09-18T02:19:35.867Z,15.40
2018-09-18T02:22:03.791Z,13.50
2018-09-18T02:24:31.708Z,15.60
2018-09-18T02:26:59.607Z,15.50
2018-09-18T02:29:27.483Z,16.13
2018-09-18T02:31:55.336Z,16.50
2018-09-18T02:34:23.185Z,16.97
2018-09-18T02:36:51.099Z,18.57
2018-09-18T02:39:19.059Z,15.50
2018-09-18T02:41:46.945Z,14.10
2018-09-18T02:44:14.886Z,16.03
2018-09-18T02:46:42.757Z,15.23
2018-09-18T02:49:10.643Z,14.50
2018-09-18T02:51:38.599Z,13.93
2018-09-18T02:54:06.504Z,15.40
2018-09-18T02:56:34.482Z,13.80
2018-09-18T02:59:02.377Z,13.73
2018-09-18T03:01:30.257Z,13.33
2018-09-18T03:03:58.194Z,19.37
2018-09-18T03:06:26.124Z,15.30
2018-09-18T03:08:54.067Z,17.20
2018-09-18T03:11:22.007Z,15.30
2018-09-18T03:13:49.860Z,18.23
2018-09-18T03:16:17.789Z,17.57
2018-09-18T03:18:45.704Z,16.53
2018-09-18T03:21:13.580Z,14.80
2018-09-18T03:23:41.518Z,17.60
2018-09-18T03:26:09.697Z,16.97
2018-09-18T03:28:37.724Z,17.20
2018-09-18T03:31:05.562Z,18.87
2018-09-18T03:33:33.480Z,21.23
2018-09-18T03:36:01.427Z,18.30
2018-09-18T03:38:29.275Z,14.63
2018-09-18T03:40:57.199Z,16.20
2018-09-18T03:43:25.140Z,18.20
2018-09-18T03:45:52.992Z,21.07
2018-09-18T03:48:20.844Z,20.83
2018-09-18T03:50:48.757Z,18.13
2018-09-18T03:53:16.739Z,17.40
2018-09-18T03:55:44.711Z,19.70
2018-09-18T03:58:12.580Z,18.90
2018-09-18T04:00:40.524Z,22.27
2018-09-18T04:03:09.365Z,18.90
2018-09-18T04:05:37.307Z,20.23
2018-09-18T04:08:05.280Z,16.63
2018-09-18T04:10:33.196Z,19.20
2018-09-18T04:13:01.049Z,16.20
2018-09-18T04:15:28.977Z,19.50
2018-09-18T04:17:57.281Z,17.13
2018-09-18T04:20:25.162Z,16.70
2018-09-18T04:22:53.057Z,18.00
2018-09-18T04:25:21.005Z,19.27
2018-09-18T04:27:48.906Z,19.10
2018-09-18T04:30:16.897Z,20.40
2018-09-18T04:32:44.799Z,18.40
2018-09-18T04:35:12.721Z,19.77
2018-09-18T04:37:40.592Z,22.10
2018-09-18T04:40:08.497Z,25.60
2018-09-18T04:42:36.439Z,20.53
2018-09-18T04:45:04.442Z,22.57
2018-09-18T04:47:32.305Z,22.57
2018-09-18T04:50:00.218Z,18.30
2018-09-18T04:52:28.126Z,19.73
2018-09-18T04:54:56.060Z,19.07
2018-09-18T04:57:23.874Z,18.77
2018-09-18T04:59:51.752Z,21.57
2018-09-18T05:02:19.615Z,19.47
2018-09-18T05:04:47.460Z,21.90
2018-09-18T05:07:15.391Z,22.47
2018-09-18T05:09:43.362Z,19.23
2018-09-18T05:12:11.313Z,17.47
2018-09-18T05:14:39.215Z,20.37
2018-09-18T05:17:07.123Z,18.53
2018-09-18T05:19:34.977Z,16.00
2018-09-18T05:22:02.825Z,18.10
2018-09-18T05:24:30.761Z,18.70
2018-09-18T05:26:58.685Z,15.97
2018-09-18T05:29:26.585Z,18.93
2018-09-18T05:31:54.449Z,17.47
2018-09-18T05:34:22.286Z,18.03
2018-09-18T05:36:50.159Z,18.10
2018-09-18T05:39:18.059Z,19.33
2018-09-18T05:41:45.996Z,19.80
2018-09-18T05:44:13.884Z,18.00
2018-09-18T05:46:41.770Z,19.03
2018-09-18T05:49:09.688Z,17.50
2018-09-18T05:51:37.578Z,21.53
2018-09-18T05:54:05.503Z,21.57
2018-09-18T05:56:33.405Z,16.63
2018-09-18T05:59:01.350Z,18.97
2018-09-18T06:01:29.241Z,19.80
2018-09-18T06:03:57.162Z,19.50
2018-09-18T06:06:26.071Z,19.87
2018-09-18T06:08:53.931Z,16.60
2018-09-18T06:11:21.849Z,18.53
2018-09-18T06:13:49.776Z,19.60
2018-09-18T06:16:17.741Z,18.83
2018-09-18T06:18:45.703Z,18.33
2018-09-18T06:21:13.620Z,17.63
2018-09-18T06:23:41.476Z,21.30
2018-09-18T06:26:09.355Z,18.93
2018-09-18T06:28:37.332Z,19.10
2018-09-18T06:31:05.300Z,17.60
2018-09-18T06:33:34.155Z,21.80
2018-09-18T06:36:02.066Z,21.20
2018-09-18T06:38:29.979Z,24.60
2018-09-18T06:40:57.906Z,21.20
2018-09-18T06:43:25.782Z,17.43
2018-09-18T06:45:53.687Z,18.97
2018-09-18T06:48:21.631Z,22.33
2018-09-18T06:50:49.558Z,20.27
2018-09-18T06:53:17.425Z,19.20
2018-09-18T06:55:45.269Z,21.10
2018-09-18T06:58:13.186Z,27.67
2018-09-18T07:00:41.118Z,24.70
2018-09-18T07:03:09.043Z,23.40
2018-09-18T07:05:37.026Z,20.70
2018-09-18T07:08:04.965Z,19.13
2018-09-18T07:10:32.905Z,22.80
2018-09-18T07:13:00.844Z,21.23
2018-09-18T07:15:28.734Z,26.83
2018-09-18T07:17:56.682Z,19.73
2018-09-18T07:20:24.520Z,15.80
2018-09-18T07:22:52.482Z,19.23
2018-09-18T07:25:20.381Z,20.30
2018-09-18T07:27:48.318Z,22.87
2018-09-18T07:30:16.294Z,23.37
2018-09-18T07:32:44.162Z,19.70
2018-09-18T07:35:12.076Z,15.50
2018-09-18T07:37:39.936Z,18.43
2018-09-18T07:40:07.826Z,23.73
2018-09-18T07:42:36.681Z,21.70
2018-09-18T07:45:04.573Z,22.00
2018-09-18T07:47:32.441Z,23.07
2018-09-18T07:50:00.295Z,16.07
2018-09-18T07:52:28.182Z,19.40
2018-09-18T07:54:56.115Z,28.83
2018-09-18T07:57:23.976Z,21.47
2018-09-18T07:59:51.889Z,21.73
2018-09-18T08:02:19.837Z,19.97
2018-09-18T08:04:47.689Z,16.00
2018-09-18T08:07:15.576Z,21.70
2018-09-18T08:09:43.457Z,19.80
2018-09-18T08:12:11.630Z,13.60
2018-09-18T08:14:39.618Z,18.43
2018-09-18T08:17:07.516Z,15.47
2018-09-18T08:19:35.578Z,18.83
2018-09-18T08:22:03.458Z,19.57
2018-09-18T08:24:31.362Z,17.13
2018-09-18T08:26:59.210Z,17.60
2018-09-18T08:29:27.210Z,22.73
2018-09-18T08:31:55.105Z,16.07
2018-09-18T08:34:23.362Z,13.23
2018-09-18T08:36:52.235Z,22.73
2018-09-18T08:39:21.167Z,19.87
2018-09-18T08:41:49.102Z,18.40
2018-09-18T08:44:17.066Z,14.90
2018-09-18T08:46:44.996Z,25.93
2018-09-18T08:49:12.880Z,15.27
2018-09-18T08:51:40.875Z,14.60
2018-09-18T08:54:08.746Z,24.13
2018-09-18T08:56:36.736Z,23.17
2018-09-18T08:59:04.670Z,19.93
2018-09-18T09:01:32.613Z,15.70
2018-09-18T09:04:00.538Z,17.63
2018-09-18T09:06:28.511Z,17.70
2018-09-18T09:08:56.505Z,17.10
2018-09-18T09:13:32.524Z,14.77
2018-09-18T09:16:00.494Z,19.40
2018-09-18T09:18:28.553Z,16.30
2018-09-18T09:20:56.485Z,27.55
2018-09-18T09:23:24.374Z,24.05
2018-09-18T09:25:52.267Z,18.97
2018-09-18T09:28:21.209Z,14.43
2018-09-18T09:30:49.129Z,14.10
2018-09-18T09:33:17.138Z,13.90
2018-09-18T09:35:45.092Z,20.07
2018-09-18T09:38:13.018Z,18.10
2018-09-18T09:40:40.962Z,15.40
2018-09-18T09:43:08.880Z,28.90
2018-09-18T09:45:36.800Z,17.80
2018-09-18T09:48:04.746Z,14.10
2018-09-18T09:50:32.612Z,14.73
2018-09-18T09:53:00.523Z,15.30
2018-09-18T09:55:28.409Z,14.47
2018-09-18T09:57:56.358Z,16.10
2018-09-18T10:00:29.881Z,13.30
2018-09-18T10:02:57.817Z,13.80
2018-09-18T10:05:25.660Z,19.43
2018-09-18T10:07:53.608Z,16.13
2018-09-18T10:10:21.560Z,20.73
2018-09-18T10:12:49.502Z,21.23
2018-09-18T10:15:17.445Z,15.53
2018-09-18T10:17:45.365Z,13.80
2018-09-18T10:20:13.345Z,18.33
2018-09-18T10:22:41.249Z,11.17
2018-09-18T10:25:09.231Z,12.13
2018-09-18T10:27:37.064Z,20.07
2018-09-18T10:30:04.988Z,11.40
2018-09-18T10:32:32.927Z,17.00
2018-09-18T10:35:00.809Z,13.73
2018-09-18T10:37:28.703Z,10.70
2018-09-18T10:39:56.694Z,11.43
2018-09-18T10:42:24.698Z,8.43
2018-09-18T10:44:52.546Z,12.70
2018-09-18T10:47:20.503Z,9.93
2018-09-18T10:49:48.420Z,11.90
2018-09-18T10:52:16.309Z,10.00
2018-09-18T10:54:44.187Z,8.00
2018-09-18T10:57:12.165Z,9.53
2018-09-18T11:34:02.816Z,9.33
2018-09-18T11:36:30.705Z,8.87
2018-09-18T11:38:58.601Z,8.00
2018-09-18T11:41:27.038Z,9.47
2018-09-18T11:43:54.995Z,9.47
2018-09-18T11:46:22.915Z,7.77
2018-09-18T11:48:50.833Z,7.53
2018-09-18T11:51:19.093Z,6.93
2018-09-18T11:53:46.910Z,8.47
2018-09-18T11:56:14.857Z,9.30
2018-09-18T11:58:42.763Z,7.23
2018-09-18T12:01:10.681Z,8.20
2018-09-18T12:03:38.657Z,6.90
2018-09-18T12:06:06.502Z,10.60
2018-09-18T12:08:34.532Z,7.40
2018-09-18T12:11:02.393Z,7.70
2018-09-18T12:13:30.293Z,12.17
2018-09-18T12:15:58.270Z,8.40
2018-09-18T12:18:26.194Z,9.10
2018-09-18T12:20:54.157Z,6.80
2018-09-18T12:23:22.091Z,6.87
2018-09-18T12:25:49.961Z,10.67
2018-09-18T12:28:17.914Z,8.67
2018-09-18T12:30:45.886Z,8.23
2018-09-18T12:33:13.760Z,8.80
2018-09-18T12:35:41.756Z,6.63
2018-09-18T13:05:08.069Z,8.10
2018-09-18T13:10:03.098Z,9.50
2018-09-18T17:10:23.749Z,17.00
2018-09-18T17:17:45.994Z,9.10
2018-09-18T17:20:13.945Z,8.90
2018-09-18T17:42:19.105Z,15.80
2018-09-18T17:44:47.019Z,16.60
2018-09-18T17:52:09.142Z,15.67
2018-09-18T17:59:33.398Z,12.60
2018-09-18T18:56:00.882Z,14.63
2018-09-18T22:29:43.171Z,17.90
